KCLM/CLM METAR and TAF weather

Enter ICAO airport designator
Station Type Date Time Source
KCLM METAR 2019/05/27 08:53 UTC NOAA

KCLM 270853Z AUTO 07003KT 10SM CLR 10/09 A2992 RMK AO2 SLP132 T01000089 50002


Station Type Date Time Source
KCLM Decoded METAR 2019/05/27 08:53 UTC NOAA

PORT ANGELES FAIRCHILD INTERNATIONAL , WA, United States (KCLM) 48-07N 123-30W 85M
May 27, 2019 - 04:53 AM EDT / 2019.05.27 0853 UTC
Wind: from the ENE (070 degrees) at 3 MPH (3 KT):0
Visibility: 10 mile(s):0
Sky conditions: clear
Temperature: 50.0 F (10.0 C)
Dew Point: 48.0 F (8.9 C)
Relative Humidity: 92%
Pressure (altimeter): 29.92 in. Hg (1013 hPa)
Pressure tendency: 0.01 inches (0.2 hPa) higher than three hours ago
ob: KCLM 270853Z AUTO 07003KT 10SM CLR 10/09 A2992 RMK AO2 SLP132 T01000089 50002
cycle: 9

Station Type Date Time Source
KCLM TAF 2019/05/27 06:24 UTC NOAA

TAF KCLM 270521Z 2706/2806 VRB03KT P6SM SCT120 SCT200
FM271800 VRB05KT P6SM SCT120 SCT200
FM280200 29011KT P6SM SCT200

Example: see airport list